Time;durP1;ratioP1;P1;durP2;ratioP2;P2;SDS_P1;SDS_P2;PMS_P1;PMS_P2;Temp;Humidity;BMP_temperature;BMP_pressure;BME280_temperature;BME280_humidity;BME280_pressure;Samples;Min_cycle;Max_cycle;Signal;HPM_P1;HPM_P2
2023/04/11 00:00:32;;;;;;;0.50;0.50;;;13.00;90.20;;;;;;5073288;28;20497;-81
2023/04/11 00:03:00;;;;;;;1.90;0.60;;;13.00;90.60;;;;;;5073102;28;20941;-81
2023/04/11 00:05:30;;;;;;;3.13;0.80;;;13.00;90.30;;;;;;5073323;28;20460;-80
2023/04/11 00:07:57;;;;;;;0.70;0.40;;;13.00;90.40;;;;;;5073209;28;20457;-80
2023/04/11 00:10:23;;;;;;;0.70;0.70;;;13.10;90.30;;;;;;5073006;28;20472;-81
2023/04/11 00:12:51;;;;;;;1.03;0.73;;;13.10;90.20;;;;;;5072979;28;20945;-81
2023/04/11 00:15:18;;;;;;;0.40;0.40;;;13.10;90.10;;;;;;5073319;28;20552;-80
2023/04/11 00:17:45;;;;;;;0.73;0.50;;;13.10;90.30;;;;;;5073230;28;20458;-81
2023/04/11 00:20:13;;;;;;;0.80;0.60;;;13.00;90.30;;;;;;5073115;28;20485;-80
2023/04/11 00:22:42;;;;;;;0.50;0.50;;;13.00;90.30;;;;;;5072903;28;20485;-80
2023/04/11 00:25:09;;;;;;;1.30;0.50;;;13.00;90.90;;;;;;5076533;28;20480;-81
2023/04/11 00:27:36;;;;;;;1.43;0.53;;;13.00;90.70;;;;;;5077286;28;20464;-80
2023/04/11 00:30:02;;;;;;;0.50;0.40;;;13.00;90.80;;;;;;5077210;28;20874;-80
2023/04/11 00:32:29;;;;;;;1.60;0.60;;;13.00;91.00;;;;;;5077018;28;20432;-81
2023/04/11 00:34:56;;;;;;;0.60;0.60;;;13.00;91.00;;;;;;5077200;28;20863;-80
2023/04/11 00:37:23;;;;;;;0.50;0.50;;;13.10;90.90;;;;;;5077128;28;20453;-80
2023/04/11 00:39:51;;;;;;;0.50;0.50;;;13.10;91.00;;;;;;5076925;28;20484;-80
2023/04/11 00:42:21;;;;;;;3.43;1.33;;;13.10;91.30;;;;;;5077116;28;20449;-80
2023/04/11 00:44:48;;;;;;;0.50;0.40;;;13.10;91.30;;;;;;5077069;28;20461;-81
2023/04/11 00:47:15;;;;;;;1.37;0.50;;;13.20;91.10;;;;;;5076481;28;20484;-79
2023/04/11 00:49:42;;;;;;;0.40;0.40;;;13.10;91.30;;;;;;5076573;28;20465;-79
2023/04/11 00:52:09;;;;;;;0.50;0.50;;;13.10;91.60;;;;;;5076915;28;20430;-81
2023/04/11 00:54:35;;;;;;;0.40;0.40;;;13.00;91.50;;;;;;5076504;28;20972;-81
2023/04/11 00:57:05;;;;;;;0.60;0.60;;;13.10;91.60;;;;;;5076815;28;20854;-82
2023/04/11 00:59:33;;;;;;;0.40;0.40;;;13.10;91.60;;;;;;5077066;28;20509;-81
2023/04/11 01:02:00;;;;;;;0.50;0.50;;;13.10;92.00;;;;;;5076589;28;20457;-79
2023/04/11 01:04:28;;;;;;;0.67;0.40;;;13.10;92.50;;;;;;5076372;28;20540;-79
2023/04/11 01:06:58;;;;;;;0.93;0.57;;;13.00;92.80;;;;;;5076401;28;20457;-82
2023/04/11 01:09:28;;;;;;;0.40;0.40;;;13.00;93.00;;;;;;5076163;28;20477;-79
2023/04/11 01:11:56;;;;;;;0.53;0.53;;;13.00;93.00;;;;;;5076511;28;20441;-79
2023/04/11 01:14:27;;;;;;;0.40;0.40;;;13.00;93.40;;;;;;5076479;28;20445;-79
2023/04/11 01:16:55;;;;;;;0.50;0.50;;;13.00;94.00;;;;;;5076187;28;20908;-79
2023/04/11 01:19:24;;;;;;;0.70;0.50;;;13.00;94.50;;;;;;5076244;28;20507;-79
2023/04/11 01:21:52;;;;;;;0.50;0.50;;;13.00;94.30;;;;;;5076240;28;20535;-80
2023/04/11 01:24:21;;;;;;;0.83;0.50;;;13.00;94.70;;;;;;5075951;28;20452;-80
2023/04/11 01:26:48;;;;;;;0.50;0.50;;;12.90;94.70;;;;;;5075924;28;20532;-80
2023/04/11 01:29:14;;;;;;;1.10;0.60;;;13.00;95.30;;;;;;5076269;28;20829;-79
2023/04/11 01:31:41;;;;;;;1.90;1.00;;;13.00;95.60;;;;;;5076266;28;20450;-80
2023/04/11 01:34:11;;;;;;;3.53;1.13;;;13.00;95.90;;;;;;5076037;28;20453;-80
2023/04/11 01:36:38;;;;;;;0.90;0.80;;;13.00;96.60;;;;;;5074996;28;20929;-79
2023/04/11 01:39:05;;;;;;;0.50;0.50;;;12.90;98.10;;;;;;5076208;28;20453;-80
2023/04/11 01:41:34;;;;;;;0.47;0.47;;;12.80;98.30;;;;;;5075659;28;21026;-79
2023/04/11 01:44:01;;;;;;;0.40;0.37;;;12.80;99.80;;;;;;5075800;28;20552;-80
2023/04/11 01:46:28;;;;;;;0.80;0.60;;;12.80;99.90;;;;;;5075760;28;20477;-80
2023/04/11 01:48:55;;;;;;;0.47;0.40;;;12.70;99.90;;;;;;5075885;28;20437;-80
2023/04/11 01:51:22;;;;;;;0.73;0.40;;;12.60;99.90;;;;;;5075671;28;20473;-80
2023/04/11 01:53:49;;;;;;;1.47;0.70;;;12.40;99.90;;;;;;5075733;28;20446;-80
2023/04/11 01:56:16;;;;;;;0.80;0.60;;;12.30;99.90;;;;;;5075698;28;20468;-80
2023/04/11 01:58:44;;;;;;;0.90;0.60;;;12.20;99.90;;;;;;5075656;28;20441;-79
2023/04/11 02:01:12;;;;;;;0.50;0.50;;;12.20;99.90;;;;;;5075271;28;20925;-80
2023/04/11 02:03:39;;;;;;;0.60;0.60;;;12.10;99.90;;;;;;5075451;28;20528;-80
2023/04/11 02:06:06;;;;;;;3.43;0.60;;;12.00;99.90;;;;;;5075505;28;20467;-80
2023/04/11 02:08:33;;;;;;;1.40;0.50;;;12.00;99.90;;;;;;5075498;28;20823;-79
2023/04/11 02:11:00;;;;;;;0.50;0.50;;;11.90;99.90;;;;;;5075354;28;20465;-79
2023/04/11 02:13:26;;;;;;;0.43;0.40;;;11.80;99.90;;;;;;5075132;28;20788;-79
2023/04/11 02:15:54;;;;;;;0.63;0.40;;;11.70;99.90;;;;;;5075355;28;20441;-79
2023/04/11 02:18:21;;;;;;;0.50;0.40;;;11.60;99.90;;;;;;5075291;28;20449;-79
2023/04/11 02:20:49;;;;;;;2.20;0.50;;;11.50;99.90;;;;;;5074738;28;20488;-79
2023/04/11 02:23:15;;;;;;;0.40;0.40;;;11.50;99.90;;;;;;5075155;28;20453;-79
2023/04/11 02:25:42;;;;;;;0.40;0.40;;;11.40;99.90;;;;;;5075089;28;20454;-79
2023/04/11 02:28:09;;;;;;;0.30;0.30;;;11.20;99.90;;;;;;5075068;28;20503;-78
2023/04/11 02:30:36;;;;;;;0.60;0.40;;;11.10;99.90;;;;;;5074923;28;20560;-79
2023/04/11 02:33:04;;;;;;;0.77;0.30;;;11.00;99.90;;;;;;5074958;28;20457;-79
2023/04/11 02:35:31;;;;;;;0.40;0.30;;;10.80;99.90;;;;;;5074885;28;20450;-79
2023/04/11 02:37:58;;;;;;;0.60;0.30;;;10.70;99.90;;;;;;5075046;28;20454;-79
2023/04/11 02:40:24;;;;;;;0.40;0.30;;;10.70;99.90;;;;;;5074336;28;21011;-79
2023/04/11 02:42:51;;;;;;;0.60;0.30;;;10.60;99.90;;;;;;5074762;28;20835;-79
2023/04/11 02:45:18;;;;;;;0.40;0.30;;;10.50;99.90;;;;;;5074671;28;20462;-79
2023/04/11 02:47:45;;;;;;;0.50;0.40;;;10.50;99.90;;;;;;5073994;28;20484;-79
2023/04/11 02:50:13;;;;;;;0.60;0.60;;;10.40;99.90;;;;;;5074547;28;20469;-79
2023/04/11 02:52:40;;;;;;;0.40;0.30;;;10.40;99.90;;;;;;5074513;28;20452;-79
2023/04/11 02:55:08;;;;;;;0.30;0.30;;;10.40;99.90;;;;;;5074498;28;20463;-79
2023/04/11 02:57:35;;;;;;;0.40;0.30;;;10.30;99.90;;;;;;5074464;28;20446;-79
2023/04/11 03:00:03;;;;;;;0.30;0.30;;;10.30;99.90;;;;;;5074388;28;20495;-79
2023/04/11 03:02:30;;;;;;;0.40;0.40;;;10.30;99.90;;;;;;5073945;28;20517;-79
2023/04/11 03:04:56;;;;;;;1.13;0.30;;;10.30;99.90;;;;;;5074329;28;20452;-79
2023/04/11 03:07:25;;;;;;;0.40;0.40;;;10.30;99.90;;;;;;5074332;28;20441;-78
2023/04/11 03:09:52;;;;;;;0.30;0.30;;;10.20;99.90;;;;;;5074152;28;20474;-79
2023/04/11 03:12:19;;;;;;;0.30;0.20;;;10.10;99.90;;;;;;5074196;28;20448;-79
2023/04/11 03:14:46;;;;;;;0.40;0.30;;;10.00;99.90;;;;;;5074698;28;20452;-79
2023/04/11 03:17:12;;;;;;;0.50;0.30;;;10.00;99.90;;;;;;5073774;28;20975;-78
2023/04/11 03:19:39;;;;;;;0.30;0.30;;;10.00;99.90;;;;;;5073788;28;20841;-78
2023/04/11 03:22:06;;;;;;;0.30;0.30;;;10.00;99.90;;;;;;5073673;28;20478;-78
2023/04/11 03:24:34;;;;;;;1.37;0.33;;;9.90;99.90;;;;;;5073947;28;20495;-78
2023/04/11 03:27:00;;;;;;;0.40;0.30;;;9.90;99.90;;;;;;5073965;28;20437;-78
2023/04/11 03:29:27;;;;;;;0.30;0.30;;;9.90;99.90;;;;;;5073805;28;20470;-78
2023/04/11 03:31:54;;;;;;;0.30;0.20;;;9.80;99.90;;;;;;5073784;28;20441;-79
2023/04/11 03:34:20;;;;;;;0.40;0.30;;;9.80;99.90;;;;;;5073796;28;20445;-79
2023/04/11 03:36:47;;;;;;;0.83;0.40;;;9.80;99.90;;;;;;5073500;28;20960;-79
2023/04/11 03:39:14;;;;;;;0.40;0.30;;;9.80;99.90;;;;;;5073631;28;20453;-79
2023/04/11 03:41:42;;;;;;;0.30;0.30;;;9.80;99.90;;;;;;5073307;28;20902;-79
2023/04/11 03:44:08;;;;;;;0.30;0.30;;;9.70;99.90;;;;;;5073658;28;20450;-78
2023/04/11 03:46:35;;;;;;;1.23;0.40;;;9.70;99.90;;;;;;5073214;28;20885;-78
2023/04/11 03:49:02;;;;;;;0.30;0.30;;;9.70;99.90;;;;;;5073359;28;20434;-78
2023/04/11 03:51:30;;;;;;;0.30;0.30;;;9.70;99.90;;;;;;5073174;28;20469;-78
2023/04/11 03:53:57;;;;;;;0.30;0.30;;;9.70;99.90;;;;;;5073457;28;20445;-78
2023/04/11 03:56:23;;;;;;;0.30;0.20;;;9.70;99.90;;;;;;5073617;28;20459;-78
2023/04/11 03:58:51;;;;;;;1.00;0.30;;;9.70;99.90;;;;;;5072612;28;20476;-78
2023/04/11 04:01:18;;;;;;;0.30;0.30;;;9.80;99.90;;;;;;5073346;28;20492;-79
2023/04/11 04:03:45;;;;;;;0.30;0.30;;;9.80;99.90;;;;;;5073096;28;20821;-78
2023/04/11 04:06:11;;;;;;;0.30;0.20;;;9.80;99.90;;;;;;5073646;28;20555;-78
2023/04/11 04:08:38;;;;;;;0.30;0.30;;;9.80;99.90;;;;;;5073363;28;20450;-78
2023/04/11 04:11:05;;;;;;;0.30;0.20;;;9.70;99.90;;;;;;5073271;28;20497;-78
2023/04/11 04:13:32;;;;;;;0.50;0.30;;;9.70;99.90;;;;;;5073327;28;20449;-78
2023/04/11 04:16:00;;;;;;;0.30;0.30;;;9.70;99.90;;;;;;5073440;28;20430;-78
2023/04/11 04:18:27;;;;;;;0.60;0.40;;;9.70;99.90;;;;;;5073281;28;20453;-78
2023/04/11 04:20:53;;;;;;;0.30;0.30;;;9.70;99.90;;;;;;5073128;28;20469;-78
2023/04/11 04:23:20;;;;;;;1.03;0.40;;;9.60;99.90;;;;;;5073236;28;20445;-78
2023/04/11 04:25:48;;;;;;;0.40;0.30;;;9.70;99.90;;;;;;5073213;28;20442;-78
2023/04/11 04:28:19;;;;;;;0.40;0.30;;;9.60;99.90;;;;;;5073215;28;20494;-79
2023/04/11 04:30:52;;;;;;;0.30;0.30;;;9.60;99.90;;;;;;5073109;28;20619;-78
2023/04/11 04:33:20;;;;;;;0.37;0.27;;;9.50;99.90;;;;;;5073157;28;20430;-78
2023/04/11 04:35:47;;;;;;;0.30;0.30;;;9.50;99.90;;;;;;5073114;28;20456;-78
2023/04/11 04:38:16;;;;;;;0.30;0.23;;;9.40;99.90;;;;;;5072760;28;20824;-79
2023/04/11 04:40:42;;;;;;;0.30;0.30;;;9.40;99.90;;;;;;5072856;28;20479;-78
2023/04/11 04:43:16;;;;;;;0.30;0.30;;;9.30;99.90;;;;;;5073087;28;20865;-78
2023/04/11 04:45:43;;;;;;;0.30;0.20;;;9.20;99.90;;;;;;5072854;28;20545;-79
2023/04/11 04:48:10;;;;;;;0.40;0.30;;;9.20;99.90;;;;;;5072561;28;20535;-79
2023/04/11 04:50:38;;;;;;;0.30;0.20;;;9.10;99.90;;;;;;5072947;28;20592;-79
2023/04/11 04:53:06;;;;;;;0.30;0.30;;;9.10;99.90;;;;;;5073520;28;20450;-78
2023/04/11 04:55:33;;;;;;;0.30;0.27;;;9.00;99.90;;;;;;5072967;28;20458;-78
2023/04/11 04:58:00;;;;;;;0.30;0.30;;;8.90;99.90;;;;;;5072590;28;20932;-78
2023/04/11 05:00:26;;;;;;;0.97;0.40;;;8.90;99.90;;;;;;5072570;28;20993;-78
2023/04/11 05:02:54;;;;;;;0.30;0.20;;;8.80;99.90;;;;;;5072798;28;20481;-78
2023/04/11 05:05:21;;;;;;;0.50;0.40;;;8.80;99.90;;;;;;5072848;28;20452;-78
2023/04/11 05:07:49;;;;;;;0.30;0.20;;;8.80;99.90;;;;;;5072855;28;20445;-78
2023/04/11 05:10:16;;;;;;;0.30;0.30;;;8.70;99.90;;;;;;5074353;28;20500;-78
2023/04/11 05:12:43;;;;;;;0.60;0.60;;;8.70;99.90;;;;;;5076195;28;20952;-78
2023/04/11 05:15:10;;;;;;;0.30;0.20;;;8.70;99.90;;;;;;5076494;28;20428;-78
2023/04/11 05:17:37;;;;;;;0.30;0.30;;;8.60;99.90;;;;;;5076416;28;20450;-78
2023/04/11 05:20:06;;;;;;;0.40;0.30;;;8.60;99.90;;;;;;5076327;28;20473;-78
2023/04/11 05:22:32;;;;;;;0.40;0.27;;;8.50;99.90;;;;;;5076799;28;20472;-79
2023/04/11 05:25:01;;;;;;;0.30;0.20;;;8.40;99.90;;;;;;5076166;28;20456;-78
2023/04/11 05:27:27;;;;;;;0.30;0.30;;;8.30;99.90;;;;;;5075886;28;20458;-76
2023/04/11 05:29:54;;;;;;;0.50;0.30;;;8.20;99.90;;;;;;5075813;28;20886;-77
2023/04/11 05:32:21;;;;;;;0.70;0.57;;;8.10;99.90;;;;;;5076105;28;20449;-76
2023/04/11 05:34:52;;;;;;;0.30;0.20;;;8.00;99.90;;;;;;5076078;28;20449;-76
2023/04/11 05:37:19;;;;;;;0.30;0.20;;;7.90;99.90;;;;;;5076082;28;20546;-77
2023/04/11 05:39:46;;;;;;;0.30;0.20;;;7.80;99.90;;;;;;5075949;28;20465;-77
2023/04/11 05:42:16;;;;;;;0.37;0.37;;;7.80;99.90;;;;;;5075908;28;20477;-76
2023/04/11 05:44:43;;;;;;;0.40;0.30;;;7.70;99.90;;;;;;5075836;28;20454;-77
2023/04/11 05:47:10;;;;;;;0.30;0.30;;;7.60;99.90;;;;;;5075647;28;20506;-76
2023/04/11 05:49:37;;;;;;;0.30;0.30;;;7.60;99.90;;;;;;5075388;28;21005;-75
2023/04/11 05:52:04;;;;;;;0.30;0.30;;;7.60;99.90;;;;;;5075951;28;20512;-80
2023/04/11 05:54:32;;;;;;;0.30;0.20;;;7.60;99.90;;;;;;5076755;28;20434;-78
2023/04/11 05:57:00;;;;;;;0.40;0.30;;;7.60;99.90;;;;;;5075667;28;20446;-77
2023/04/11 05:59:30;;;;;;;0.40;0.40;;;7.60;99.90;;;;;;5075850;28;20466;-77
2023/04/11 06:01:57;;;;;;;8.43;0.40;;;7.60;99.90;;;;;;5075721;28;20513;-78
2023/04/11 06:04:24;;;;;;;0.30;0.20;;;7.60;99.90;;;;;;5075551;28;20445;-78
2023/04/11 06:06:52;;;;;;;0.30;0.20;;;7.70;99.90;;;;;;5075559;28;20449;-78
2023/04/11 06:09:19;;;;;;;0.40;0.30;;;7.80;99.90;;;;;;5075405;28;20518;-78
2023/04/11 06:11:46;;;;;;;0.30;0.30;;;7.70;99.90;;;;;;5075102;28;21039;-78
2023/04/11 06:14:12;;;;;;;0.30;0.30;;;7.70;99.90;;;;;;5075415;28;20905;-78
2023/04/11 06:16:41;;;;;;;0.30;0.23;;;7.70;99.90;;;;;;5075342;28;20453;-78
2023/04/11 06:19:08;;;;;;;0.30;0.30;;;7.70;99.90;;;;;;5075193;28;20449;-78
2023/04/11 06:21:34;;;;;;;1.80;0.30;;;7.70;99.90;;;;;;5074109;28;20989;-78
2023/04/11 06:24:05;;;;;;;0.30;0.30;;;7.70;99.90;;;;;;5074894;28;20868;-78
2023/04/11 06:26:31;;;;;;;0.30;0.20;;;7.60;99.90;;;;;;5075061;28;20943;-78
2023/04/11 06:28:58;;;;;;;0.40;0.40;;;7.60;99.90;;;;;;5075106;28;20457;-78
2023/04/11 06:31:25;;;;;;;0.30;0.30;;;7.50;99.90;;;;;;5074979;28;20477;-78
2023/04/11 06:33:54;;;;;;;0.30;0.20;;;7.50;99.90;;;;;;5075010;28;20445;-78
2023/04/11 06:36:21;;;;;;;0.30;0.20;;;7.60;99.90;;;;;;5074928;28;20544;-78
2023/04/11 06:38:48;;;;;;;0.30;0.20;;;7.70;99.90;;;;;;5074946;28;20446;-78
2023/04/11 06:41:14;;;;;;;0.50;0.30;;;7.80;99.90;;;;;;5074446;28;20534;-78
2023/04/11 06:43:41;;;;;;;0.30;0.30;;;7.80;99.90;;;;;;5074415;28;20542;-78
2023/04/11 06:46:08;;;;;;;0.30;0.20;;;7.80;99.90;;;;;;5074253;28;20469;-78
2023/04/11 06:48:34;;;;;;;0.30;0.30;;;7.80;99.90;;;;;;5074718;28;20437;-78
2023/04/11 06:51:02;;;;;;;0.30;0.20;;;7.90;99.90;;;;;;5074586;28;20476;-78
2023/04/11 06:53:29;;;;;;;0.30;0.30;;;8.00;99.90;;;;;;5074568;28;20481;-78
2023/04/11 06:55:56;;;;;;;0.30;0.30;;;8.10;99.90;;;;;;5074516;28;20453;-78
2023/04/11 06:58:23;;;;;;;1.13;0.40;;;8.10;99.90;;;;;;5074499;28;20516;-78
2023/04/11 07:00:50;;;;;;;0.30;0.30;;;8.20;99.90;;;;;;5074419;28;20470;-78
2023/04/11 07:03:17;;;;;;;0.30;0.23;;;8.20;99.90;;;;;;5074051;28;20478;-78
2023/04/11 07:05:43;;;;;;;0.60;0.40;;;8.20;99.90;;;;;;5074397;28;20485;-78
2023/04/11 07:08:11;;;;;;;0.50;0.40;;;8.30;99.90;;;;;;5074350;28;20481;-78
2023/04/11 07:10:38;;;;;;;0.30;0.30;;;8.30;99.90;;;;;;5074350;28;20465;-78
2023/04/11 07:13:05;;;;;;;0.30;0.20;;;8.30;99.90;;;;;;5073925;28;20442;-78
2023/04/11 07:15:31;;;;;;;0.30;0.30;;;8.40;99.90;;;;;;5074127;28;20501;-78
2023/04/11 07:17:58;;;;;;;0.30;0.20;;;8.30;99.90;;;;;;5074114;28;20446;-78
2023/04/11 07:20:25;;;;;;;0.30;0.20;;;8.30;99.90;;;;;;5073770;28;20822;-78
2023/04/11 07:22:52;;;;;;;0.40;0.30;;;8.40;99.90;;;;;;5073960;28;20485;-78
2023/04/11 07:25:21;;;;;;;0.50;0.40;;;8.50;99.90;;;;;;5073973;28;20457;-79
2023/04/11 07:27:50;;;;;;;0.30;0.30;;;8.50;99.90;;;;;;5073639;28;20967;-79
2023/04/11 07:30:17;;;;;;;0.30;0.20;;;8.40;99.90;;;;;;5073840;28;20474;-79
2023/04/11 07:32:44;;;;;;;0.30;0.30;;;8.50;99.90;;;;;;5073885;28;20461;-79
2023/04/11 07:35:11;;;;;;;0.30;0.30;;;8.60;99.90;;;;;;5073810;28;20452;-79
2023/04/11 07:37:38;;;;;;;0.40;0.30;;;8.60;99.90;;;;;;5073799;28;20528;-79
2023/04/11 07:40:08;;;;;;;0.40;0.30;;;8.70;99.90;;;;;;5073652;28;20484;-79
2023/04/11 07:42:36;;;;;;;0.30;0.30;;;9.00;99.90;;;;;;5073681;28;20466;-79
2023/04/11 07:45:04;;;;;;;0.30;0.20;;;9.60;99.90;;;;;;5073756;28;20438;-79
2023/04/11 07:47:30;;;;;;;0.33;0.30;;;10.10;99.90;;;;;;5073473;28;20595;-79
2023/04/11 07:49:57;;;;;;;1.17;0.50;;;10.40;99.90;;;;;;5073219;28;21003;-79
2023/04/11 07:52:24;;;;;;;0.77;0.53;;;10.70;99.90;;;;;;5073365;28;20853;-79
2023/04/11 07:54:51;;;;;;;0.30;0.30;;;10.90;99.90;;;;;;5073593;28;20801;-79
2023/04/11 07:57:18;;;;;;;0.40;0.30;;;11.10;99.90;;;;;;5073141;28;20460;-79
2023/04/11 07:59:46;;;;;;;0.30;0.30;;;11.40;99.90;;;;;;5073463;28;20461;-79
2023/04/11 08:02:12;;;;;;;11.27;0.50;;;11.70;99.90;;;;;;5073111;28;20987;-79
2023/04/11 08:04:39;;;;;;;2.53;0.50;;;11.70;99.90;;;;;;5073323;28;20441;-79
2023/04/11 08:07:06;;;;;;;1.43;0.43;;;11.80;99.90;;;;;;5073072;28;20499;-79
2023/04/11 08:09:33;;;;;;;0.40;0.30;;;11.70;99.90;;;;;;5073034;28;20545;-79
2023/04/11 08:12:00;;;;;;;0.40;0.30;;;11.50;99.90;;;;;;5073131;28;20438;-79
2023/04/11 08:14:27;;;;;;;1.77;0.37;;;11.50;99.90;;;;;;5073035;28;20450;-79
2023/04/11 08:16:55;;;;;;;0.40;0.40;;;11.60;99.90;;;;;;5073312;28;20456;-79
2023/04/11 08:19:22;;;;;;;1.50;0.30;;;11.50;99.90;;;;;;5072934;28;20998;-79
2023/04/11 08:21:48;;;;;;;3.87;0.83;;;11.40;99.90;;;;;;5073300;28;20453;-79
2023/04/11 08:24:16;;;;;;;14.27;0.70;;;11.30;99.90;;;;;;5072878;28;21011;-79
2023/04/11 08:26:42;;;;;;;0.33;0.30;;;11.00;99.90;;;;;;5073249;28;20448;-79
2023/04/11 08:29:11;;;;;;;0.40;0.40;;;10.90;99.90;;;;;;5072820;28;20453;-80
2023/04/11 08:31:41;;;;;;;0.37;0.30;;;10.90;99.90;;;;;;5073227;28;20528;-79
2023/04/11 08:34:09;;;;;;;1.93;0.47;;;10.70;99.90;;;;;;5073211;28;20429;-80
2023/04/11 08:36:36;;;;;;;2.60;0.37;;;10.80;99.90;;;;;;5073159;28;20454;-80
2023/04/11 08:39:03;;;;;;;0.37;0.33;;;11.00;99.90;;;;;;5073219;28;20456;-80
2023/04/11 08:41:30;;;;;;;0.40;0.30;;;11.10;99.90;;;;;;5072718;28;20995;-80
2023/04/11 08:43:57;;;;;;;3.17;0.90;;;11.10;99.90;;;;;;5073044;28;20476;-80
2023/04/11 08:46:24;;;;;;;0.40;0.30;;;11.10;99.90;;;;;;5076576;28;20572;-80
2023/04/11 08:48:51;;;;;;;0.40;0.30;;;11.20;99.90;;;;;;5076724;28;20528;-80
2023/04/11 08:51:23;;;;;;;2.87;0.40;;;11.30;99.90;;;;;;5076928;28;20480;-80
2023/04/11 08:53:53;;;;;;;0.40;0.40;;;11.40;99.90;;;;;;5076926;28;20426;-80
2023/04/11 08:56:19;;;;;;;0.40;0.30;;;12.10;99.90;;;;;;5076827;28;20484;-80
2023/04/11 08:58:46;;;;;;;1.43;0.50;;;12.80;99.90;;;;;;5076595;28;20479;-80
2023/04/11 09:01:25;;;;;;;1.57;0.40;;;13.40;99.90;;;;;;5076431;28;20480;-80
2023/04/11 09:03:52;;;;;;;6.43;0.40;;;14.20;99.90;;;;;;5076673;28;20556;-81
2023/04/11 09:06:19;;;;;;;0.93;0.50;;;14.70;99.90;;;;;;5076357;28;20449;-80
2023/04/11 09:08:47;;;;;;;0.40;0.40;;;15.00;99.90;;;;;;5076620;28;20445;-81
2023/04/11 09:11:14;;;;;;;0.50;0.33;;;15.10;99.90;;;;;;5076505;28;20473;-81
2023/04/11 09:13:41;;;;;;;0.43;0.40;;;14.90;99.90;;;;;;5076201;28;20937;-80
2023/04/11 09:16:10;;;;;;;0.70;0.40;;;14.80;99.90;;;;;;5076462;28;20453;-81
2023/04/11 09:18:38;;;;;;;0.90;0.40;;;14.70;99.90;;;;;;5076200;28;20429;-79
2023/04/11 09:21:07;;;;;;;1.67;0.60;;;14.40;99.90;;;;;;5076356;28;20492;-80
2023/04/11 09:23:34;;;;;;;0.30;0.30;;;14.00;99.90;;;;;;5076294;28;20484;-80
2023/04/11 09:26:05;;;;;;;0.60;0.60;;;14.00;99.90;;;;;;5076295;28;20457;-82
2023/04/11 09:28:41;;;;;;;1.90;0.40;;;14.10;99.90;;;;;;5076320;28;20430;-81
2023/04/11 09:31:09;;;;;;;0.87;0.60;;;14.20;99.90;;;;;;5076206;28;20555;-81
2023/04/11 09:33:35;;;;;;;0.40;0.40;;;14.20;99.90;;;;;;5076673;28;20438;-83
2023/04/11 09:36:18;;;;;;;0.40;0.30;;;14.40;99.90;;;;;;5076154;28;20457;-84
2023/04/11 09:38:44;;;;;;;3.50;0.40;;;14.70;99.90;;;;;;5076125;28;20428;-82
2023/04/11 09:41:13;;;;;;;0.40;0.40;;;14.60;99.90;;;;;;5075787;28;20458;-82
2023/04/11 09:43:57;;;;;;;1.27;0.40;;;14.50;99.90;;;;;;5075907;28;20485;-81
2023/04/11 09:46:24;;;;;;;5.67;0.50;;;14.30;99.90;;;;;;5075886;28;20485;-82
2023/04/11 09:48:53;;;;;;;1.33;0.40;;;14.00;99.90;;;;;;5076252;28;20426;-82
2023/04/11 09:51:20;;;;;;;0.40;0.33;;;13.60;99.90;;;;;;5076082;28;20470;-81
2023/04/11 09:53:47;;;;;;;1.13;0.50;;;13.60;99.90;;;;;;5076030;28;20465;-82
2023/04/11 09:56:15;;;;;;;0.40;0.40;;;13.70;99.90;;;;;;5074639;28;20433;-82
2023/04/11 09:58:42;;;;;;;1.43;0.40;;;13.90;99.90;;;;;;5075268;28;20961;-82
2023/04/11 10:01:10;;;;;;;0.30;0.30;;;14.30;99.90;;;;;;5075587;28;20463;-82
2023/04/11 10:03:38;;;;;;;1.10;0.43;;;14.50;99.90;;;;;;5075578;28;20535;-82
2023/04/11 10:06:08;;;;;;;0.40;0.30;;;14.80;99.90;;;;;;5075589;28;20454;-82
2023/04/11 10:08:36;;;;;;;0.70;0.33;;;15.00;99.90;;;;;;5075534;28;20495;-82
2023/04/11 10:11:06;;;;;;;0.30;0.30;;;15.10;99.90;;;;;;5075408;28;20523;-82
2023/04/11 10:13:41;;;;;;;7.00;0.40;;;15.20;99.90;;;;;;5075123;28;20872;-82
2023/04/11 10:16:11;;;;;;;0.40;0.40;;;15.10;99.90;;;;;;5075391;28;20452;-82
2023/04/11 10:18:39;;;;;;;0.90;0.90;;;15.30;99.90;;;;;;5075340;28;20545;-82
2023/04/11 10:21:39;;;;;;;1.57;0.40;;;15.60;99.90;;;;;;5074923;28;20504;-82
2023/04/11 10:24:10;;;;;;;0.40;0.40;;;16.00;99.90;;;;;;5074854;28;20477;-82
2023/04/11 10:26:50;;;;;;;0.40;0.30;;;16.60;99.90;;;;;;5075314;28;20442;-82
2023/04/11 10:29:47;;;;;;;0.80;0.40;;;16.80;99.90;;;;;;5075123;28;20441;-82
2023/04/11 10:32:27;;;;;;;0.70;0.40;;;16.90;99.90;;;;;;5074783;28;20963;-82
2023/04/11 10:35:30;;;;;;;3.07;0.50;;;16.50;99.90;;;;;;5074772;28;20426;-82
2023/04/11 10:37:57;;;;;;;2.20;0.47;;;16.20;99.90;;;;;;5075025;28;20492;-82
2023/04/11 10:40:24;;;;;;;0.70;0.40;;;16.20;99.90;;;;;;5074821;28;20477;-82
2023/04/11 10:42:51;;;;;;;0.40;0.40;;;16.20;99.90;;;;;;5074786;28;20808;-82
2023/04/11 10:45:22;;;;;;;0.60;0.50;;;15.80;99.90;;;;;;5074797;28;20457;-82
2023/04/11 10:48:10;;;;;;;1.00;0.60;;;15.40;99.90;;;;;;5074585;28;20481;-82
2023/04/11 10:50:43;;;;;;;1.50;0.37;;;15.20;99.90;;;;;;5074735;28;20469;-82
2023/04/11 10:53:32;;;;;;;0.50;0.40;;;15.40;99.90;;;;;;5074673;28;20426;-82
2023/04/11 10:55:59;;;;;;;0.50;0.40;;;15.60;99.90;;;;;;5074615;28;20568;-82
2023/04/11 10:58:38;;;;;;;0.50;0.30;;;16.00;99.90;;;;;;5074589;28;20494;-82
2023/04/11 11:01:27;;;;;;;1.90;0.40;;;16.20;99.90;;;;;;5074476;28;20461;-82
2023/04/11 11:03:56;;;;;;;0.60;0.40;;;16.40;99.90;;;;;;5074611;28;20473;-82
2023/04/11 11:06:24;;;;;;;0.40;0.40;;;16.30;99.90;;;;;;5074421;28;20442;-82
2023/04/11 11:08:51;;;;;;;0.43;0.40;;;16.20;99.90;;;;;;5074070;28;20453;-82
2023/04/11 11:11:19;;;;;;;1.03;0.60;;;16.10;99.30;;;;;;5073872;28;20473;-82
2023/04/11 11:13:49;;;;;;;0.50;0.40;;;16.10;99.10;;;;;;5074231;28;20445;-83
2023/04/11 11:16:17;;;;;;;0.40;0.30;;;16.00;99.90;;;;;;5074254;28;20476;-82
2023/04/11 11:18:47;;;;;;;4.77;0.70;;;16.10;99.90;;;;;;5074156;28;20446;-83
2023/04/11 11:21:15;;;;;;;1.80;0.43;;;16.20;99.10;;;;;;5074211;28;20826;-82
2023/04/11 11:23:57;;;;;;;0.60;0.50;;;16.10;98.60;;;;;;5073976;28;20851;-83
2023/04/11 11:26:39;;;;;;;1.50;0.57;;;16.20;99.30;;;;;;5074041;28;20430;-83
2023/04/11 11:29:06;;;;;;;0.47;0.30;;;16.20;97.40;;;;;;5071511;28;20453;-82
2023/04/11 11:31:38;;;;;;;0.60;0.50;;;16.00;97.70;;;;;;5073621;28;20557;-83
2023/04/11 11:34:06;;;;;;;0.50;0.50;;;15.90;98.70;;;;;;5073803;28;20442;-85
2023/04/11 11:36:36;;;;;;;0.40;0.30;;;15.80;97.60;;;;;;5073855;28;20544;-82
2023/04/11 11:39:05;;;;;;;0.40;0.40;;;15.80;96.80;;;;;;5073807;28;20445;-82
2023/04/11 11:41:33;;;;;;;0.53;0.50;;;15.80;96.20;;;;;;5073942;28;20453;-82
2023/04/11 11:44:00;;;;;;;0.40;0.40;;;15.60;95.80;;;;;;5073674;28;20580;-82
2023/04/11 11:46:30;;;;;;;1.80;0.37;;;15.60;95.80;;;;;;5073445;28;20988;-83
2023/04/11 11:48:58;;;;;;;0.40;0.40;;;15.40;95.00;;;;;;5073693;28;20520;-82
2023/04/11 11:51:26;;;;;;;0.70;0.40;;;15.40;96.10;;;;;;5073489;28;20462;-82
2023/04/11 11:54:04;;;;;;;0.40;0.40;;;15.20;96.10;;;;;;5073276;28;20930;-82
2023/04/11 11:56:31;;;;;;;0.70;0.60;;;15.20;96.90;;;;;;5073577;28;20445;-82
2023/04/11 11:58:57;;;;;;;0.40;0.40;;;15.20;95.40;;;;;;5073505;28;20485;-82
2023/04/11 12:01:24;;;;;;;1.47;0.50;;;15.00;96.60;;;;;;5073363;28;20542;-82
2023/04/11 12:03:52;;;;;;;0.73;0.40;;;15.00;96.20;;;;;;5073659;28;20477;-82
2023/04/11 12:06:19;;;;;;;0.50;0.40;;;15.10;95.60;;;;;;5073448;28;20441;-81
2023/04/11 12:08:52;;;;;;;0.43;0.40;;;15.00;94.10;;;;;;5074116;28;20506;-83
2023/04/11 12:11:19;;;;;;;0.83;0.57;;;15.00;94.20;;;;;;5073052;28;20898;-82
2023/04/11 12:13:51;;;;;;;0.40;0.30;;;14.90;93.70;;;;;;5073281;28;20456;-82
2023/04/11 12:16:21;;;;;;;0.70;0.40;;;14.90;94.30;;;;;;5072015;28;20433;-82
2023/04/11 12:18:48;;;;;;;0.47;0.30;;;14.90;94.10;;;;;;5073055;28;20869;-82
2023/04/11 12:21:16;;;;;;;1.67;0.40;;;15.00;92.70;;;;;;5072625;28;20454;-83
2023/04/11 12:23:43;;;;;;;2.10;0.60;;;15.20;92.30;;;;;;5072873;28;21023;-82
2023/04/11 12:26:11;;;;;;;0.40;0.40;;;15.30;93.30;;;;;;5073983;28;20844;-83
2023/04/11 12:28:37;;;;;;;8.10;0.50;;;15.30;90.30;;;;;;5073247;28;20445;-83
2023/04/11 12:31:05;;;;;;;0.40;0.40;;;15.30;90.50;;;;;;5073454;28;20468;-82
2023/04/11 12:33:31;;;;;;;0.30;0.30;;;15.30;91.30;;;;;;5073584;28;20441;-83
2023/04/11 12:35:58;;;;;;;0.40;0.40;;;15.40;90.80;;;;;;5075227;28;20453;-82
2023/04/11 12:38:25;;;;;;;2.50;0.50;;;15.50;90.60;;;;;;5075869;28;20472;-85
2023/04/11 12:40:52;;;;;;;1.00;0.60;;;15.40;90.60;;;;;;5072922;28;20480;-82
2023/04/11 12:43:20;;;;;;;0.40;0.37;;;15.40;89.90;;;;;;5073106;28;20450;-84
2023/04/11 12:45:47;;;;;;;0.60;0.40;;;15.30;90.30;;;;;;5073133;28;20460;-86
2023/04/11 12:48:14;;;;;;;0.80;0.80;;;15.30;89.00;;;;;;5072607;28;20482;-80
2023/04/11 12:50:41;;;;;;;0.40;0.40;;;15.40;91.30;;;;;;5073007;28;20474;-83
2023/04/11 12:53:08;;;;;;;0.40;0.30;;;15.50;90.80;;;;;;5072750;28;20440;-83
2023/04/11 12:55:34;;;;;;;0.50;0.47;;;15.40;88.70;;;;;;5072965;28;20441;-83